createdAt,value
2023-01-02T00:01:33.992Z,14.07
2023-01-02T00:04:00.737Z,13.23
2023-01-02T00:06:27.488Z,14.50
2023-01-02T00:08:54.123Z,14.60
2023-01-02T00:11:20.795Z,12.90
2023-01-02T00:13:47.410Z,12.97
2023-01-02T00:16:14.101Z,15.27
2023-01-02T00:18:40.779Z,15.20
2023-01-02T00:21:07.824Z,14.77
2023-01-02T00:23:35.583Z,13.67
2023-01-02T00:26:02.458Z,14.23
2023-01-02T00:28:29.585Z,12.53
2023-01-02T00:30:56.350Z,12.90
2023-01-02T00:33:23.130Z,12.97
2023-01-02T00:35:49.736Z,11.13
2023-01-02T00:38:18.265Z,10.97
2023-01-02T00:40:44.964Z,9.47
2023-01-02T00:43:11.547Z,11.23
2023-01-02T00:45:38.214Z,9.63
2023-01-02T00:48:04.876Z,11.30
2023-01-02T00:50:31.510Z,10.97
2023-01-02T00:52:58.151Z,8.37
2023-01-02T00:55:24.689Z,11.53
2023-01-02T00:57:51.325Z,9.37
2023-01-02T01:00:23.663Z,10.10
2023-01-02T01:02:54.516Z,9.77
2023-01-02T01:05:21.151Z,9.60
2023-01-02T01:07:47.744Z,10.17
2023-01-02T01:10:14.406Z,8.93
2023-01-02T01:12:41.028Z,8.03
2023-01-02T01:15:09.153Z,9.00
2023-01-02T01:17:35.774Z,8.50
2023-01-02T01:20:02.600Z,10.50
2023-01-02T01:22:29.296Z,10.77
2023-01-02T01:24:56.116Z,11.57
2023-01-02T01:27:22.843Z,10.07
2023-01-02T01:29:49.508Z,11.47
2023-01-02T01:32:16.139Z,13.53
2023-01-02T01:34:43.551Z,15.17
2023-01-02T01:37:10.294Z,14.60
2023-01-02T01:39:36.886Z,11.73
2023-01-02T01:42:03.619Z,11.47
2023-01-02T01:44:47.286Z,10.83
2023-01-02T01:47:33.170Z,11.60
2023-01-02T01:50:15.006Z,14.37
2023-01-02T01:52:47.838Z,13.07
2023-01-02T01:55:24.151Z,12.73
2023-01-02T01:57:58.747Z,12.23
2023-01-02T02:00:25.560Z,12.57
2023-01-02T02:02:57.486Z,12.23
2023-01-02T02:05:33.782Z,12.77
2023-01-02T02:08:18.107Z,11.80
2023-01-02T02:10:45.262Z,12.50
2023-01-02T02:13:12.247Z,12.43
2023-01-02T02:16:00.905Z,12.83
2023-01-02T02:18:59.081Z,11.73
2023-01-02T02:21:34.461Z,11.77
2023-01-02T02:24:12.844Z,11.17
2023-01-02T02:27:07.454Z,9.93
2023-01-02T02:29:58.762Z,10.03
2023-01-02T02:32:46.696Z,9.73
2023-01-02T02:35:32.288Z,9.23
2023-01-02T02:38:35.690Z,8.53
2023-01-02T02:41:33.276Z,9.67
2023-01-02T02:44:23.462Z,7.27
2023-01-02T02:47:16.299Z,8.13
2023-01-02T02:50:03.405Z,7.60
2023-01-02T02:52:36.123Z,9.07
2023-01-02T02:55:08.628Z,9.63
2023-01-02T02:57:48.088Z,8.60
2023-01-02T03:00:21.270Z,9.07
2023-01-02T03:02:48.121Z,9.07
2023-01-02T03:05:25.621Z,8.70
2023-01-02T03:08:15.258Z,9.47
2023-01-02T03:10:44.836Z,8.47
2023-01-02T03:13:40.925Z,9.23
2023-01-02T03:16:27.658Z,10.07
2023-01-02T03:19:06.852Z,10.77
2023-01-02T03:21:41.832Z,11.50
2023-01-02T03:24:15.060Z,11.47
2023-01-02T03:26:58.415Z,9.20
2023-01-02T03:29:39.190Z,10.93
2023-01-02T03:32:23.003Z,13.27
2023-01-02T03:34:51.581Z,12.07
2023-01-02T03:37:31.310Z,10.27
2023-01-02T03:40:02.025Z,12.00
2023-01-02T03:42:34.497Z,10.87
2023-01-02T03:45:08.109Z,11.90
2023-01-02T03:48:23.696Z,11.30
2023-01-02T03:50:56.560Z,9.93
2023-01-02T03:53:24.228Z,10.17
2023-01-02T03:56:09.236Z,11.27
2023-01-02T03:58:46.452Z,11.27
2023-01-02T04:01:22.997Z,10.47
2023-01-02T04:03:59.544Z,10.97
2023-01-02T04:06:34.133Z,9.60
2023-01-02T04:09:07.789Z,10.33
2023-01-02T04:11:37.454Z,8.87
2023-01-02T04:14:12.353Z,9.03
2023-01-02T04:16:42.220Z,9.77
2023-01-02T04:19:46.881Z,9.73
2023-01-02T04:22:21.345Z,8.90
2023-01-02T04:24:53.937Z,8.07
2023-01-02T04:27:25.611Z,9.50
2023-01-02T04:29:52.447Z,8.97
2023-01-02T04:32:32.111Z,9.73
2023-01-02T04:35:02.079Z,9.33
2023-01-02T04:37:34.959Z,9.83
2023-01-02T04:40:13.664Z,10.13
2023-01-02T04:42:40.454Z,10.37
2023-01-02T04:45:07.674Z,9.37
2023-01-02T04:47:34.304Z,11.33
2023-01-02T04:50:00.961Z,10.00
2023-01-02T04:52:32.052Z,10.37
2023-01-02T04:55:01.947Z,10.20
2023-01-02T04:57:28.746Z,10.27
2023-01-02T04:59:55.361Z,9.73
2023-01-02T05:02:22.116Z,9.13
2023-01-02T05:04:48.699Z,9.90
2023-01-02T05:07:15.317Z,8.63
2023-01-02T05:09:42.004Z,8.23
2023-01-02T05:12:08.653Z,8.10
2023-01-02T05:14:35.282Z,8.33
2023-01-02T05:17:02.036Z,9.57
2023-01-02T05:19:28.671Z,9.60
2023-01-02T05:22:13.555Z,7.43
2023-01-02T05:24:40.133Z,6.90
2023-01-02T05:27:06.761Z,7.63
2023-01-02T05:29:36.451Z,8.07
2023-01-02T05:32:03.100Z,10.67
2023-01-02T05:34:29.782Z,8.23
2023-01-02T05:36:56.356Z,8.93
2023-01-02T05:39:23.057Z,9.57
2023-01-02T05:41:49.628Z,8.20
2023-01-02T05:44:16.223Z,8.83
2023-01-02T05:46:43.056Z,8.80
2023-01-02T05:49:11.041Z,9.57
2023-01-02T05:51:37.736Z,8.83
2023-01-02T05:54:04.889Z,6.83
2023-01-02T05:56:31.672Z,7.60
2023-01-02T05:58:58.658Z,7.73
2023-01-02T06:01:29.257Z,9.10
2023-01-02T06:03:57.973Z,8.70
2023-01-02T06:06:29.860Z,7.67
2023-01-02T06:08:57.893Z,9.57
2023-01-02T06:11:24.538Z,9.20
2023-01-02T06:13:51.148Z,9.43
2023-01-02T06:16:17.826Z,8.43
2023-01-02T06:18:44.501Z,8.87
2023-01-02T06:21:14.301Z,8.37
2023-01-02T06:23:46.119Z,9.20
2023-01-02T06:26:20.530Z,8.50
2023-01-02T06:28:51.068Z,7.53
2023-01-02T06:31:19.581Z,8.10
2023-01-02T06:33:46.332Z,8.67
2023-01-02T06:36:15.491Z,8.03
2023-01-02T06:38:42.408Z,8.50
2023-01-02T06:41:09.895Z,8.77
2023-01-02T06:43:41.940Z,8.03
2023-01-02T06:46:08.592Z,8.40
2023-01-02T06:48:35.275Z,9.40
2023-01-02T06:51:06.971Z,7.27
2023-01-02T06:53:37.325Z,8.17
2023-01-02T06:56:04.759Z,8.13
2023-01-02T06:58:32.864Z,8.93
2023-01-02T07:01:20.412Z,8.77
2023-01-02T07:03:47.215Z,7.50
2023-01-02T07:06:20.431Z,8.10
2023-01-02T07:08:48.717Z,8.40
2023-01-02T07:11:23.348Z,10.73
2023-01-02T07:13:52.758Z,10.40
2023-01-02T07:16:21.536Z,9.63
2023-01-02T07:18:48.606Z,9.10
2023-01-02T07:21:18.036Z,10.83
2023-01-02T07:23:44.777Z,11.60
2023-01-02T07:26:11.854Z,12.53
2023-01-02T07:28:38.938Z,12.00
2023-01-02T07:31:08.923Z,13.73
2023-01-02T07:33:35.910Z,12.33
2023-01-02T07:36:05.857Z,12.67
2023-01-02T07:38:32.634Z,14.03
2023-01-02T07:40:59.295Z,16.03
2023-01-02T07:43:26.345Z,17.50
2023-01-02T07:45:53.113Z,14.60
2023-01-02T07:48:19.892Z,15.37
2023-01-02T07:50:47.169Z,14.73
2023-01-02T07:53:13.925Z,14.50
2023-01-02T07:55:40.732Z,18.20
2023-01-02T07:58:07.386Z,17.50
2023-01-02T08:00:34.105Z,18.37
2023-01-02T08:03:01.012Z,21.50
2023-01-02T08:05:27.683Z,20.47
2023-01-02T08:07:54.299Z,22.10
2023-01-02T08:10:20.894Z,19.90
2023-01-02T08:12:47.539Z,22.60
2023-01-02T08:15:14.176Z,23.73
2023-01-02T08:17:41.675Z,23.77
2023-01-02T08:20:09.429Z,26.57
2023-01-02T08:22:36.364Z,25.50
2023-01-02T08:25:03.925Z,23.83
2023-01-02T08:27:30.545Z,24.07
2023-01-02T08:29:57.149Z,25.17
2023-01-02T08:32:23.821Z,24.77
2023-01-02T08:34:50.500Z,23.60
2023-01-02T08:37:17.206Z,22.47
2023-01-02T08:42:26.708Z,21.23
2023-01-02T08:44:53.850Z,25.13
2023-01-02T08:47:20.468Z,23.77
2023-01-02T08:49:47.143Z,24.13
2023-01-02T08:52:13.834Z,22.47
2023-01-02T08:54:40.425Z,22.67
2023-01-02T08:57:07.072Z,22.80
2023-01-02T08:59:33.675Z,21.97
2023-01-02T09:02:00.432Z,20.63
2023-01-02T09:04:27.241Z,24.00
2023-01-02T09:06:53.832Z,22.67
2023-01-02T09:09:20.409Z,21.00
2023-01-02T09:11:52.193Z,22.80
2023-01-02T09:14:20.989Z,19.83
2023-01-02T09:16:48.149Z,20.07
2023-01-02T09:19:14.825Z,21.60
2023-01-02T09:21:41.762Z,18.90
2023-01-02T09:24:09.133Z,20.10
2023-01-02T09:26:38.057Z,19.40
2023-01-02T09:29:05.364Z,22.20
2023-01-02T09:31:32.269Z,21.63
2023-01-02T09:33:59.126Z,23.40
2023-01-02T09:36:25.883Z,21.37
2023-01-02T09:38:57.632Z,21.57
2023-01-02T09:41:37.020Z,20.47
2023-01-02T09:44:06.733Z,19.10
2023-01-02T09:46:42.964Z,23.57
2023-01-02T09:49:15.628Z,22.60
2023-01-02T09:51:43.742Z,23.77
2023-01-02T09:54:27.002Z,22.87
2023-01-02T09:57:16.741Z,22.37
2023-01-02T10:00:11.046Z,26.07
2023-01-02T10:03:08.344Z,23.07
2023-01-02T10:05:41.172Z,22.47
2023-01-02T10:08:45.155Z,23.03
2023-01-02T10:11:40.744Z,24.67
2023-01-02T10:14:43.943Z,26.93
2023-01-02T10:17:15.626Z,25.93
2023-01-02T10:20:02.075Z,26.03
2023-01-02T10:22:43.019Z,26.27
2023-01-02T10:25:32.713Z,27.37
2023-01-02T10:28:36.580Z,26.60
2023-01-02T10:31:09.709Z,26.73
2023-01-02T10:33:44.985Z,28.20
2023-01-02T10:36:23.431Z,25.60
2023-01-02T10:38:50.969Z,24.93
2023-01-02T10:41:18.111Z,27.27
2023-01-02T10:43:49.640Z,26.07
2023-01-02T10:46:16.231Z,26.30
2023-01-02T10:48:46.986Z,22.77
2023-01-02T10:51:19.247Z,24.53
2023-01-02T10:54:00.236Z,23.47
2023-01-02T10:56:30.113Z,22.77
2023-01-02T10:58:56.795Z,23.37
2023-01-02T11:01:28.622Z,22.57
2023-01-02T11:03:58.341Z,18.03
2023-01-02T11:06:38.814Z,20.50
2023-01-02T11:09:28.192Z,21.30
2023-01-02T11:11:58.334Z,18.13
2023-01-02T11:14:33.261Z,17.90
2023-01-02T11:17:15.152Z,17.20
2023-01-02T11:19:44.885Z,18.53
2023-01-02T11:22:14.017Z,16.50
2023-01-02T11:25:00.033Z,19.63
2023-01-02T11:27:36.804Z,20.13
2023-01-02T11:30:07.466Z,14.03
2023-01-02T11:32:40.238Z,18.47
2023-01-02T11:35:33.820Z,21.37
2023-01-02T11:38:01.709Z,28.30
2023-01-02T11:40:31.282Z,24.53
2023-01-02T11:43:44.377Z,31.90
2023-01-02T11:46:27.511Z,27.73
2023-01-02T11:48:59.966Z,36.43
2023-01-02T11:51:28.332Z,28.10
2023-01-02T11:53:57.131Z,27.93
2023-01-02T11:56:36.452Z,27.67
2023-01-02T11:59:14.784Z,29.13
2023-01-02T12:01:43.103Z,28.03
2023-01-02T12:04:10.810Z,28.23
2023-01-02T12:06:52.592Z,27.10
2023-01-02T12:09:45.828Z,25.23
2023-01-02T12:12:34.926Z,26.80
2023-01-02T12:15:07.561Z,25.57
2023-01-02T12:17:43.406Z,24.47
2023-01-02T12:20:45.433Z,29.70
2023-01-02T12:23:28.855Z,23.80
2023-01-02T12:26:08.816Z,24.73
2023-01-02T12:28:45.248Z,23.57
2023-01-02T12:31:30.954Z,27.53
2023-01-02T12:34:48.954Z,25.47
2023-01-02T12:37:36.789Z,23.00
2023-01-02T12:40:08.782Z,22.57
2023-01-02T12:42:53.633Z,20.40
2023-01-02T12:46:13.550Z,23.77
2023-01-02T12:48:46.248Z,21.57
2023-01-02T12:51:33.580Z,21.40
2023-01-02T12:54:21.343Z,22.00
2023-01-02T12:56:56.932Z,21.67
2023-01-02T12:59:42.986Z,23.90
2023-01-02T13:02:21.488Z,24.27
2023-01-02T13:05:27.089Z,23.90
2023-01-02T13:08:00.456Z,23.40
2023-01-02T13:10:29.316Z,23.27
2023-01-02T13:13:01.938Z,24.63
2023-01-02T13:15:34.720Z,21.13
2023-01-02T13:18:10.690Z,20.60
2023-01-02T13:20:43.309Z,22.23
2023-01-02T13:23:19.032Z,23.17
2023-01-02T13:25:49.555Z,23.23
2023-01-02T13:28:17.441Z,20.37
2023-01-02T13:31:11.149Z,21.87
2023-01-02T13:33:45.772Z,21.73
2023-01-02T13:36:37.254Z,23.73
2023-01-02T13:39:24.145Z,22.57
2023-01-02T13:42:13.678Z,20.47
2023-01-02T13:45:00.775Z,19.80
2023-01-02T13:47:35.101Z,18.93
2023-01-02T13:50:20.065Z,17.90
2023-01-02T13:53:06.688Z,15.27
2023-01-02T13:55:57.432Z,15.80
2023-01-02T13:58:43.665Z,14.93
2023-01-02T14:01:25.331Z,14.23
2023-01-02T14:04:07.272Z,15.93
2023-01-02T14:06:47.228Z,20.67
2023-01-02T14:09:18.067Z,19.73
2023-01-02T14:11:56.975Z,19.17
2023-01-02T14:14:26.993Z,17.60
2023-01-02T14:17:19.901Z,19.33
2023-01-02T14:20:06.632Z,18.23
2023-01-02T14:22:50.716Z,16.87
2023-01-02T14:25:18.273Z,16.20
2023-01-02T14:28:00.524Z,15.00
2023-01-02T14:30:54.446Z,15.43
2023-01-02T14:33:34.332Z,14.47
2023-01-02T14:36:10.110Z,13.47
2023-01-02T14:38:54.108Z,14.60
2023-01-02T14:42:10.004Z,13.43
2023-01-02T14:44:46.688Z,13.43
2023-01-02T14:47:19.532Z,12.87
2023-01-02T14:49:55.101Z,11.87
2023-01-02T14:52:37.596Z,13.97
2023-01-02T14:55:20.384Z,14.17
2023-01-02T14:58:05.507Z,14.67
2023-01-02T15:00:37.632Z,15.70
2023-01-02T15:03:27.397Z,17.87
2023-01-02T15:06:02.353Z,16.13
2023-01-02T15:08:39.835Z,14.87
2023-01-02T15:11:41.970Z,14.10
2023-01-02T15:14:23.613Z,13.57
2023-01-02T15:17:00.183Z,15.87
2023-01-02T15:19:30.314Z,13.97
2023-01-02T15:21:56.984Z,13.23
2023-01-02T15:24:27.158Z,17.73
2023-01-02T15:26:54.231Z,19.80
2023-01-02T15:29:25.128Z,20.13
2023-01-02T15:32:02.126Z,18.33
2023-01-02T15:34:31.208Z,15.77
2023-01-02T15:37:09.382Z,15.07
2023-01-02T15:39:40.117Z,16.80
2023-01-02T15:42:29.531Z,16.50
2023-01-02T15:45:15.046Z,14.80
2023-01-02T15:47:46.877Z,14.50
2023-01-02T15:50:25.548Z,15.00
2023-01-02T15:53:08.672Z,15.90
2023-01-02T15:55:39.173Z,14.67
2023-01-02T15:58:14.764Z,15.03
2023-01-02T16:00:42.618Z,13.37
2023-01-02T16:03:16.228Z,14.37
2023-01-02T16:05:54.582Z,15.03
2023-01-02T16:08:24.239Z,14.20
2023-01-02T16:11:03.315Z,14.03
2023-01-02T16:13:55.410Z,15.30
2023-01-02T16:16:22.862Z,14.63
2023-01-02T16:18:54.147Z,13.13
2023-01-02T16:21:21.855Z,11.87
2023-01-02T16:23:52.525Z,11.47
2023-01-02T16:26:28.531Z,11.23
2023-01-02T16:28:55.900Z,11.17
2023-01-02T16:31:23.963Z,12.63
2023-01-02T16:33:50.791Z,11.63
2023-01-02T16:36:17.579Z,12.97
2023-01-02T16:38:50.415Z,10.97
2023-01-02T16:41:38.323Z,11.73
2023-01-02T16:44:12.537Z,13.20
2023-01-02T16:46:40.009Z,11.97
2023-01-02T16:49:07.582Z,12.47
2023-01-02T16:51:34.435Z,13.07
2023-01-02T16:54:01.107Z,12.17
2023-01-02T16:56:27.888Z,12.73
2023-01-02T16:58:54.469Z,15.37
2023-01-02T17:01:23.762Z,14.30
2023-01-02T17:03:50.590Z,13.23
2023-01-02T17:06:19.112Z,11.17
2023-01-02T17:08:45.810Z,10.60
2023-01-02T17:11:18.679Z,12.43
2023-01-02T17:13:45.560Z,12.40
2023-01-02T17:16:12.527Z,14.93
2023-01-02T17:18:39.415Z,14.57
2023-01-02T17:21:06.869Z,14.73
2023-01-02T17:23:33.834Z,13.93
2023-01-02T17:26:03.489Z,14.57
2023-01-02T17:28:30.588Z,15.73
2023-01-02T17:30:57.466Z,15.30
2023-01-02T17:33:24.161Z,17.57
2023-01-02T17:35:51.195Z,15.67
2023-01-02T17:38:17.873Z,16.73
2023-01-02T17:40:44.724Z,16.33
2023-01-02T17:43:12.177Z,18.17
2023-01-02T17:45:41.549Z,14.10
2023-01-02T17:48:12.660Z,13.67
2023-01-02T17:50:42.002Z,16.23
2023-01-02T17:53:08.819Z,16.43
2023-01-02T17:55:35.524Z,16.20
2023-01-02T17:58:03.491Z,18.07
2023-01-02T18:00:30.239Z,16.57
2023-01-02T18:02:57.204Z,14.10
2023-01-02T18:05:23.920Z,16.20
2023-01-02T18:07:50.594Z,15.63
2023-01-02T18:10:21.392Z,17.70
2023-01-02T18:12:51.713Z,17.47
2023-01-02T18:15:21.195Z,17.73
2023-01-02T18:18:04.035Z,16.47
2023-01-02T18:20:34.093Z,16.20
2023-01-02T18:23:14.718Z,15.70
2023-01-02T18:25:41.802Z,16.10
2023-01-02T18:28:25.079Z,16.07
2023-01-02T18:30:59.865Z,15.47
2023-01-02T18:33:31.181Z,15.30
2023-01-02T18:36:02.306Z,14.93
2023-01-02T18:38:35.679Z,13.97
2023-01-02T18:41:21.474Z,14.23
2023-01-02T18:43:55.907Z,14.67
2023-01-02T18:47:02.064Z,14.17
2023-01-02T18:49:26.843Z,15.63
2023-01-02T18:52:27.618Z,15.50
2023-01-02T18:55:14.460Z,17.73
2023-01-02T18:57:47.092Z,19.10
2023-01-02T19:00:22.016Z,18.53
2023-01-02T19:02:54.037Z,18.27
2023-01-02T19:05:46.477Z,17.67
2023-01-02T19:08:22.929Z,18.30
2023-01-02T19:10:57.619Z,17.57
2023-01-02T19:13:46.609Z,18.50
2023-01-02T19:16:17.928Z,19.27
2023-01-02T19:18:48.988Z,21.87
2023-01-02T19:21:25.003Z,17.77
2023-01-02T19:24:22.761Z,14.23
2023-01-02T19:27:13.488Z,12.03
2023-01-02T19:29:43.578Z,12.77
2023-01-02T19:32:27.096Z,11.63
2023-01-02T19:35:26.267Z,11.53
2023-01-02T19:37:52.966Z,10.70
2023-01-02T19:40:22.584Z,11.10
2023-01-02T19:42:50.819Z,9.27
2023-01-02T19:45:22.785Z,12.10
2023-01-02T19:47:50.404Z,10.07
2023-01-02T19:50:20.231Z,10.60
2023-01-02T19:52:47.525Z,10.20
2023-01-02T19:55:14.916Z,9.83
2023-01-02T19:57:41.729Z,10.97
2023-01-02T20:00:12.840Z,12.37
2023-01-02T20:02:43.310Z,11.37
2023-01-02T20:05:12.730Z,11.63
2023-01-02T20:07:43.491Z,12.10
2023-01-02T20:10:11.115Z,10.63
2023-01-02T20:12:41.542Z,10.30
2023-01-02T20:15:17.455Z,8.60
2023-01-02T20:17:45.401Z,10.33
2023-01-02T20:20:15.707Z,10.37
2023-01-02T20:22:43.658Z,11.23
2023-01-02T20:25:14.671Z,12.37
2023-01-02T20:27:41.718Z,9.27
2023-01-02T20:30:10.071Z,11.63
2023-01-02T20:32:36.950Z,10.03
2023-01-02T20:35:04.475Z,8.33
2023-01-02T20:37:31.193Z,11.47
2023-01-02T20:39:58.268Z,9.40
2023-01-02T20:42:24.940Z,8.53
2023-01-02T20:44:51.773Z,9.13
2023-01-02T20:47:18.543Z,8.73
2023-01-02T20:49:45.333Z,7.83
2023-01-02T20:52:12.714Z,8.87
2023-01-02T20:54:40.214Z,8.60
2023-01-02T20:57:11.917Z,7.67
2023-01-02T20:59:38.543Z,9.17
2023-01-02T21:02:05.707Z,10.43
2023-01-02T21:04:36.855Z,9.83
2023-01-02T21:07:05.190Z,9.37
2023-01-02T21:09:31.897Z,9.83
2023-01-02T21:11:58.576Z,10.43
2023-01-02T21:14:25.217Z,9.40
2023-01-02T21:16:51.880Z,10.13
2023-01-02T21:19:18.512Z,10.17
2023-01-02T21:21:45.111Z,9.00
2023-01-02T21:24:11.824Z,9.27
2023-01-02T21:26:38.468Z,9.67
2023-01-02T21:29:05.121Z,9.37
2023-01-02T21:31:31.879Z,9.77
2023-01-02T21:33:58.541Z,8.80
2023-01-02T21:36:25.404Z,9.03
2023-01-02T21:38:52.237Z,12.07
2023-01-02T21:41:37.142Z,9.40
2023-01-02T21:44:03.797Z,10.00
2023-01-02T21:46:30.452Z,10.17
2023-01-02T21:48:57.122Z,8.63
2023-01-02T21:51:27.624Z,9.60
2023-01-02T21:53:55.742Z,10.73
2023-01-02T21:56:26.044Z,12.63
2023-01-02T21:58:55.878Z,11.67
2023-01-02T22:01:22.615Z,9.93
2023-01-02T22:03:49.489Z,23.87
2023-01-02T22:06:16.785Z,16.50
2023-01-02T22:08:43.479Z,12.43
2023-01-02T22:11:28.958Z,9.73
2023-01-02T22:13:55.634Z,8.67
2023-01-02T22:16:22.264Z,8.93
2023-01-02T22:18:50.743Z,8.77
2023-01-02T22:21:17.362Z,8.67
2023-01-02T22:23:43.969Z,8.30
2023-01-02T22:26:10.853Z,10.13
2023-01-02T22:28:37.775Z,9.20
2023-01-02T22:31:05.039Z,10.40
2023-01-02T22:33:31.739Z,11.33
2023-01-02T22:35:58.346Z,10.20
2023-01-02T22:38:24.969Z,9.00
2023-01-02T22:40:51.629Z,9.30
2023-01-02T22:43:24.443Z,10.73
2023-01-02T22:45:53.417Z,12.40
2023-01-02T22:48:32.461Z,10.50
2023-01-02T22:51:03.779Z,11.57
2023-01-02T22:53:32.800Z,10.00
2023-01-02T22:56:01.256Z,9.30
2023-01-02T22:58:28.250Z,9.67
2023-01-02T23:01:02.867Z,10.93
2023-01-02T23:03:33.250Z,9.10
2023-01-02T23:05:59.927Z,9.63
2023-01-02T23:08:26.622Z,8.43
2023-01-02T23:10:53.289Z,7.33
2023-01-02T23:13:19.961Z,7.10
2023-01-02T23:16:05.392Z,8.63
2023-01-02T23:18:56.618Z,10.37
2023-01-02T23:21:25.501Z,8.53
2023-01-02T23:23:52.577Z,10.77
2023-01-02T23:26:19.902Z,11.73
2023-01-02T23:31:35.086Z,11.60
2023-01-02T23:34:03.312Z,11.33
2023-01-02T23:36:30.208Z,10.03
2023-01-02T23:38:57.201Z,10.40
2023-01-02T23:41:23.865Z,8.73
2023-01-02T23:43:51.575Z,9.00
2023-01-02T23:46:18.938Z,8.37
2023-01-02T23:48:45.631Z,10.20
2023-01-02T23:51:12.392Z,8.90
2023-01-02T23:53:39.093Z,8.90
2023-01-02T23:56:19.744Z,10.03
2023-01-02T23:58:47.863Z,9.00
